HKMO/MBA METAR and TAF weather

Enter ICAO airport designator
Station Type Date Time Source
HKMO METAR 2020/03/31 21:00 UTC NOAA

HKMO 312100Z 23003KT 9999 FEW022 28/26 Q1012 NOSIG


Station Type Date Time Source
HKMO Decoded METAR 2020/03/31 21:00 UTC NOAA

Mombasa, Kenya (HKMO) 04-02S 039-37E 55M
Mar 31, 2020 - 05:00 PM EDT / 2020.03.31 2100 UTC
Wind: from the SW (230 degrees) at 3 MPH (3 KT):0
Visibility: greater than 7 mile(s):0
Sky conditions: mostly clear
Temperature: 82 F (28 C)
Dew Point: 78 F (26 C)
Relative Humidity: 88%
Pressure (altimeter): 29.88 in. Hg (1012 hPa)
ob: HKMO 312100Z 23003KT 9999 FEW022 28/26 Q1012 NOSIG
cycle: 21

Station Type Date Time Source
HKMO TAF 2020/03/31 18:51 UTC NOAA

TAF TAF HKMO 301700Z 3018/3124 17005KT 9999 FEW023CB /
TEMPO 3100/3106 28005KT -SHRA FEW020CB SCT021 BKN080 /
BECMG 3109/3112 15010KT FEW026CB SCT027 /
BECMG 3118/3121 20005KT FEW022CB

Example: see airport list